sensor_id;sensor_type;location;lat;lon;timestamp;P1;durP1;ratioP1;P2;durP2;ratioP2
21827;SDS011;11076;47.942;11.804;2023-05-19T00:02:26;10.80;;;5.50;;
21827;SDS011;11076;47.942;11.804;2023-05-19T00:07:34;15.95;;;5.55;;
21827;SDS011;11076;47.942;11.804;2023-05-19T00:12:39;14.60;;;7.27;;
21827;SDS011;11076;47.942;11.804;2023-05-19T00:17:43;12.03;;;5.73;;
21827;SDS011;11076;47.942;11.804;2023-05-19T00:22:46;14.70;;;5.37;;
21827;SDS011;11076;47.942;11.804;2023-05-19T00:27:49;10.20;;;5.80;;
21827;SDS011;11076;47.942;11.804;2023-05-19T00:32:51;12.77;;;5.70;;
21827;SDS011;11076;47.942;11.804;2023-05-19T00:37:54;16.45;;;5.28;;
21827;SDS011;11076;47.942;11.804;2023-05-19T00:42:57;20.23;;;5.75;;
21827;SDS011;11076;47.942;11.804;2023-05-19T00:47:59;12.52;;;5.90;;
21827;SDS011;11076;47.942;11.804;2023-05-19T00:53:02;15.47;;;6.17;;
21827;SDS011;11076;47.942;11.804;2023-05-19T00:58:05;19.37;;;5.77;;
21827;SDS011;11076;47.942;11.804;2023-05-19T01:03:08;17.13;;;5.83;;
21827;SDS011;11076;47.942;11.804;2023-05-19T01:08:14;15.60;;;5.63;;
21827;SDS011;11076;47.942;11.804;2023-05-19T01:13:17;15.60;;;5.10;;
21827;SDS011;11076;47.942;11.804;2023-05-19T01:18:21;12.60;;;5.70;;
21827;SDS011;11076;47.942;11.804;2023-05-19T01:34:30;15.68;;;6.20;;
21827;SDS011;11076;47.942;11.804;2023-05-19T01:39:37;16.30;;;6.00;;
21827;SDS011;11076;47.942;11.804;2023-05-19T01:44:41;16.10;;;6.63;;
21827;SDS011;11076;47.942;11.804;2023-05-19T01:49:45;17.10;;;6.57;;
21827;SDS011;11076;47.942;11.804;2023-05-19T01:54:47;17.90;;;6.47;;
21827;SDS011;11076;47.942;11.804;2023-05-19T02:10:32;22.60;;;6.67;;
21827;SDS011;11076;47.942;11.804;2023-05-19T02:15:41;16.37;;;7.07;;
21827;SDS011;11076;47.942;11.804;2023-05-19T02:20:44;15.50;;;6.97;;
21827;SDS011;11076;47.942;11.804;2023-05-19T02:25:47;16.97;;;6.17;;
21827;SDS011;11076;47.942;11.804;2023-05-19T02:30:49;19.05;;;7.55;;
21827;SDS011;11076;47.942;11.804;2023-05-19T02:35:52;12.73;;;6.88;;
21827;SDS011;11076;47.942;11.804;2023-05-19T02:40:54;14.70;;;6.47;;
21827;SDS011;11076;47.942;11.804;2023-05-19T02:45:56;14.50;;;6.37;;
21827;SDS011;11076;47.942;11.804;2023-05-19T02:51:00;18.37;;;6.37;;
21827;SDS011;11076;47.942;11.804;2023-05-19T02:56:03;19.40;;;6.65;;
21827;SDS011;11076;47.942;11.804;2023-05-19T03:01:05;18.43;;;6.77;;
21827;SDS011;11076;47.942;11.804;2023-05-19T03:06:08;16.93;;;7.33;;
21827;SDS011;11076;47.942;11.804;2023-05-19T03:11:10;17.93;;;6.47;;
21827;SDS011;11076;47.942;11.804;2023-05-19T03:16:12;15.37;;;6.13;;
21827;SDS011;11076;47.942;11.804;2023-05-19T03:21:15;22.63;;;7.03;;
21827;SDS011;11076;47.942;11.804;2023-05-19T03:26:17;20.30;;;7.07;;
21827;SDS011;11076;47.942;11.804;2023-05-19T03:31:20;10.87;;;5.60;;
21827;SDS011;11076;47.942;11.804;2023-05-19T03:36:22;13.80;;;6.10;;
21827;SDS011;11076;47.942;11.804;2023-05-19T03:41:25;13.27;;;6.87;;
21827;SDS011;11076;47.942;11.804;2023-05-19T03:46:27;12.73;;;6.20;;
21827;SDS011;11076;47.942;11.804;2023-05-19T03:51:33;14.17;;;7.20;;
21827;SDS011;11076;47.942;11.804;2023-05-19T03:56:50;19.27;;;7.00;;
21827;SDS011;11076;47.942;11.804;2023-05-19T04:01:53;17.43;;;6.80;;
21827;SDS011;11076;47.942;11.804;2023-05-19T04:06:55;19.80;;;7.33;;
21827;SDS011;11076;47.942;11.804;2023-05-19T04:11:58;18.17;;;7.03;;
21827;SDS011;11076;47.942;11.804;2023-05-19T04:17:01;18.58;;;6.47;;
21827;SDS011;11076;47.942;11.804;2023-05-19T04:22:03;15.55;;;7.07;;
21827;SDS011;11076;47.942;11.804;2023-05-19T04:27:06;21.00;;;6.37;;
21827;SDS011;11076;47.942;11.804;2023-05-19T04:32:14;21.00;;;7.83;;
21827;SDS011;11076;47.942;11.804;2023-05-19T04:37:18;10.23;;;5.32;;
21827;SDS011;11076;47.942;11.804;2023-05-19T04:42:21;13.05;;;5.75;;
21827;SDS011;11076;47.942;11.804;2023-05-19T04:47:27;13.60;;;5.53;;
21827;SDS011;11076;47.942;11.804;2023-05-19T04:52:31;13.15;;;5.10;;
21827;SDS011;11076;47.942;11.804;2023-05-19T04:57:36;9.18;;;5.00;;
21827;SDS011;11076;47.942;11.804;2023-05-19T05:02:39;9.68;;;4.88;;
21827;SDS011;11076;47.942;11.804;2023-05-19T05:07:42;8.07;;;5.10;;
21827;SDS011;11076;47.942;11.804;2023-05-19T05:12:45;12.77;;;5.18;;
21827;SDS011;11076;47.942;11.804;2023-05-19T05:17:47;13.18;;;5.05;;
21827;SDS011;11076;47.942;11.804;2023-05-19T05:22:50;10.23;;;4.50;;
21827;SDS011;11076;47.942;11.804;2023-05-19T05:27:54;14.00;;;4.03;;
21827;SDS011;11076;47.942;11.804;2023-05-19T05:32:57;11.30;;;4.57;;
21827;SDS011;11076;47.942;11.804;2023-05-19T05:38:19;12.70;;;4.55;;
21827;SDS011;11076;47.942;11.804;2023-05-19T05:43:22;8.45;;;4.70;;
21827;SDS011;11076;47.942;11.804;2023-05-19T05:48:31;14.40;;;4.60;;
21827;SDS011;11076;47.942;11.804;2023-05-19T05:53:36;10.50;;;4.65;;
21827;SDS011;11076;47.942;11.804;2023-05-19T05:58:46;9.95;;;4.10;;
21827;SDS011;11076;47.942;11.804;2023-05-19T06:03:50;10.80;;;4.95;;
21827;SDS011;11076;47.942;11.804;2023-05-19T06:08:56;12.05;;;4.70;;
21827;SDS011;11076;47.942;11.804;2023-05-19T06:13:59;9.73;;;4.60;;
21827;SDS011;11076;47.942;11.804;2023-05-19T06:19:29;13.80;;;4.68;;
21827;SDS011;11076;47.942;11.804;2023-05-19T06:24:31;9.38;;;4.65;;
21827;SDS011;11076;47.942;11.804;2023-05-19T06:29:34;10.75;;;4.75;;
21827;SDS011;11076;47.942;11.804;2023-05-19T06:34:39;9.15;;;4.93;;
21827;SDS011;11076;47.942;11.804;2023-05-19T06:39:42;12.77;;;5.45;;
21827;SDS011;11076;47.942;11.804;2023-05-19T06:44:44;8.63;;;4.60;;
21827;SDS011;11076;47.942;11.804;2023-05-19T06:49:48;15.15;;;4.45;;
21827;SDS011;11076;47.942;11.804;2023-05-19T06:54:52;7.80;;;3.97;;
21827;SDS011;11076;47.942;11.804;2023-05-19T06:59:55;9.90;;;4.18;;
21827;SDS011;11076;47.942;11.804;2023-05-19T07:04:59;6.30;;;3.40;;
21827;SDS011;11076;47.942;11.804;2023-05-19T07:10:01;8.80;;;4.45;;
21827;SDS011;11076;47.942;11.804;2023-05-19T07:15:06;10.90;;;4.15;;
21827;SDS011;11076;47.942;11.804;2023-05-19T07:20:09;8.40;;;4.47;;
21827;SDS011;11076;47.942;11.804;2023-05-19T07:25:12;7.43;;;3.95;;
21827;SDS011;11076;47.942;11.804;2023-05-19T07:30:15;7.22;;;4.30;;
21827;SDS011;11076;47.942;11.804;2023-05-19T07:35:17;8.52;;;4.20;;
21827;SDS011;11076;47.942;11.804;2023-05-19T07:40:21;8.48;;;4.47;;
21827;SDS011;11076;47.942;11.804;2023-05-19T07:45:23;9.25;;;4.13;;
21827;SDS011;11076;47.942;11.804;2023-05-19T07:50:26;11.57;;;4.75;;
21827;SDS011;11076;47.942;11.804;2023-05-19T07:55:28;10.75;;;3.90;;
21827;SDS011;11076;47.942;11.804;2023-05-19T08:00:31;12.07;;;4.55;;
21827;SDS011;11076;47.942;11.804;2023-05-19T08:05:34;6.72;;;4.30;;
21827;SDS011;11076;47.942;11.804;2023-05-19T08:10:37;8.30;;;4.25;;
21827;SDS011;11076;47.942;11.804;2023-05-19T08:15:39;5.63;;;3.88;;
21827;SDS011;11076;47.942;11.804;2023-05-19T08:20:42;7.50;;;3.80;;
21827;SDS011;11076;47.942;11.804;2023-05-19T08:25:44;8.52;;;3.78;;
21827;SDS011;11076;47.942;11.804;2023-05-19T08:30:47;7.05;;;3.80;;
21827;SDS011;11076;47.942;11.804;2023-05-19T08:35:51;10.65;;;3.75;;
21827;SDS011;11076;47.942;11.804;2023-05-19T08:40:54;8.90;;;4.25;;
21827;SDS011;11076;47.942;11.804;2023-05-19T08:45:56;7.18;;;3.80;;
21827;SDS011;11076;47.942;11.804;2023-05-19T08:56:24;4.25;;;3.10;;
21827;SDS011;11076;47.942;11.804;2023-05-19T09:01:29;9.88;;;4.28;;
21827;SDS011;11076;47.942;11.804;2023-05-19T09:06:32;7.57;;;4.35;;
21827;SDS011;11076;47.942;11.804;2023-05-19T09:11:34;11.02;;;4.13;;
21827;SDS011;11076;47.942;11.804;2023-05-19T09:16:38;7.43;;;4.05;;
21827;SDS011;11076;47.942;11.804;2023-05-19T09:21:44;5.03;;;3.60;;
21827;SDS011;11076;47.942;11.804;2023-05-19T09:26:47;7.70;;;3.13;;
21827;SDS011;11076;47.942;11.804;2023-05-19T09:31:53;8.13;;;3.55;;
21827;SDS011;11076;47.942;11.804;2023-05-19T09:37:01;8.90;;;3.80;;
21827;SDS011;11076;47.942;11.804;2023-05-19T09:42:03;11.50;;;4.25;;
21827;SDS011;11076;47.942;11.804;2023-05-19T09:47:08;10.63;;;3.17;;
21827;SDS011;11076;47.942;11.804;2023-05-19T09:52:11;6.68;;;3.58;;
21827;SDS011;11076;47.942;11.804;2023-05-19T09:57:17;9.98;;;3.95;;
21827;SDS011;11076;47.942;11.804;2023-05-19T10:02:26;5.70;;;4.35;;
21827;SDS011;11076;47.942;11.804;2023-05-19T10:07:29;6.00;;;4.25;;
21827;SDS011;11076;47.942;11.804;2023-05-19T10:12:33;8.00;;;4.03;;
21827;SDS011;11076;47.942;11.804;2023-05-19T10:17:38;10.40;;;4.32;;
21827;SDS011;11076;47.942;11.804;2023-05-19T10:22:43;9.25;;;4.00;;
21827;SDS011;11076;47.942;11.804;2023-05-19T10:27:50;8.50;;;4.13;;
21827;SDS011;11076;47.942;11.804;2023-05-19T10:32:59;9.40;;;4.15;;
21827;SDS011;11076;47.942;11.804;2023-05-19T10:49:20;21.67;;;11.13;;
21827;SDS011;11076;47.942;11.804;2023-05-19T10:54:57;18.67;;;13.73;;
21827;SDS011;11076;47.942;11.804;2023-05-19T10:59:55;9.05;;;4.68;;
21827;SDS011;11076;47.942;11.804;2023-05-19T11:05:05;9.18;;;4.78;;
21827;SDS011;11076;47.942;11.804;2023-05-19T11:10:13;7.22;;;4.43;;
21827;SDS011;11076;47.942;11.804;2023-05-19T11:15:25;8.30;;;4.90;;
21827;SDS011;11076;47.942;11.804;2023-05-19T11:20:31;7.35;;;5.20;;
21827;SDS011;11076;47.942;11.804;2023-05-19T11:30:46;7.72;;;4.75;;
21827;SDS011;11076;47.942;11.804;2023-05-19T11:35:53;12.75;;;4.60;;
21827;SDS011;11076;47.942;11.804;2023-05-19T11:40:58;8.25;;;5.20;;
21827;SDS011;11076;47.942;11.804;2023-05-19T11:46:01;6.75;;;4.93;;
21827;SDS011;11076;47.942;11.804;2023-05-19T11:51:07;9.73;;;4.95;;
21827;SDS011;11076;47.942;11.804;2023-05-19T11:56:09;17.15;;;6.43;;
21827;SDS011;11076;47.942;11.804;2023-05-19T12:01:13;7.63;;;5.78;;
21827;SDS011;11076;47.942;11.804;2023-05-19T12:06:15;9.00;;;5.47;;
21827;SDS011;11076;47.942;11.804;2023-05-19T12:11:18;9.95;;;6.32;;
21827;SDS011;11076;47.942;11.804;2023-05-19T12:16:20;10.32;;;6.65;;
21827;SDS011;11076;47.942;11.804;2023-05-19T12:21:23;10.35;;;6.57;;
21827;SDS011;11076;47.942;11.804;2023-05-19T12:26:26;10.82;;;6.82;;
21827;SDS011;11076;47.942;11.804;2023-05-19T12:31:28;9.57;;;6.55;;
21827;SDS011;11076;47.942;11.804;2023-05-19T12:36:31;11.18;;;6.25;;
21827;SDS011;11076;47.942;11.804;2023-05-19T12:41:33;11.57;;;6.20;;
21827;SDS011;11076;47.942;11.804;2023-05-19T12:46:38;10.20;;;7.07;;
21827;SDS011;11076;47.942;11.804;2023-05-19T12:51:41;9.52;;;7.32;;
21827;SDS011;11076;47.942;11.804;2023-05-19T12:56:50;14.50;;;8.27;;
21827;SDS011;11076;47.942;11.804;2023-05-19T13:01:56;10.07;;;7.35;;
21827;SDS011;11076;47.942;11.804;2023-05-19T13:06:59;10.43;;;6.95;;
21827;SDS011;11076;47.942;11.804;2023-05-19T13:12:02;10.90;;;6.78;;
21827;SDS011;11076;47.942;11.804;2023-05-19T13:17:05;12.68;;;6.60;;
21827;SDS011;11076;47.942;11.804;2023-05-19T13:22:07;12.68;;;7.10;;
21827;SDS011;11076;47.942;11.804;2023-05-19T13:27:10;12.05;;;6.95;;
21827;SDS011;11076;47.942;11.804;2023-05-19T13:32:12;9.55;;;6.57;;
21827;SDS011;11076;47.942;11.804;2023-05-19T13:37:15;9.65;;;7.03;;
21827;SDS011;11076;47.942;11.804;2023-05-19T13:42:17;12.55;;;6.65;;
21827;SDS011;11076;47.942;11.804;2023-05-19T13:47:20;12.40;;;8.55;;
21827;SDS011;11076;47.942;11.804;2023-05-19T13:52:25;15.52;;;7.07;;
21827;SDS011;11076;47.942;11.804;2023-05-19T13:57:29;11.50;;;7.65;;
21827;SDS011;11076;47.942;11.804;2023-05-19T14:02:31;8.32;;;7.40;;
21827;SDS011;11076;47.942;11.804;2023-05-19T14:07:34;19.67;;;7.88;;
21827;SDS011;11076;47.942;11.804;2023-05-19T14:12:37;9.48;;;7.25;;
21827;SDS011;11076;47.942;11.804;2023-05-19T14:17:48;9.30;;;7.82;;
21827;SDS011;11076;47.942;11.804;2023-05-19T14:22:50;10.05;;;6.35;;
21827;SDS011;11076;47.942;11.804;2023-05-19T14:27:53;12.40;;;8.43;;
21827;SDS011;11076;47.942;11.804;2023-05-19T14:32:55;9.13;;;7.78;;
21827;SDS011;11076;47.942;11.804;2023-05-19T14:37:57;17.73;;;8.57;;
21827;SDS011;11076;47.942;11.804;2023-05-19T14:43:00;16.13;;;10.43;;
21827;SDS011;11076;47.942;11.804;2023-05-19T14:48:03;10.32;;;7.88;;
21827;SDS011;11076;47.942;11.804;2023-05-19T14:53:06;11.13;;;8.43;;
21827;SDS011;11076;47.942;11.804;2023-05-19T14:58:08;13.05;;;7.45;;
21827;SDS011;11076;47.942;11.804;2023-05-19T15:03:20;11.32;;;8.07;;
21827;SDS011;11076;47.942;11.804;2023-05-19T15:08:24;12.05;;;9.05;;
21827;SDS011;11076;47.942;11.804;2023-05-19T15:13:26;17.02;;;8.98;;
21827;SDS011;11076;47.942;11.804;2023-05-19T15:18:30;10.60;;;7.80;;
21827;SDS011;11076;47.942;11.804;2023-05-19T15:23:32;9.63;;;8.55;;
21827;SDS011;11076;47.942;11.804;2023-05-19T15:28:34;10.07;;;8.85;;
21827;SDS011;11076;47.942;11.804;2023-05-19T15:33:37;10.30;;;8.25;;
21827;SDS011;11076;47.942;11.804;2023-05-19T15:38:39;12.45;;;8.52;;
21827;SDS011;11076;47.942;11.804;2023-05-19T15:43:42;10.68;;;8.07;;
21827;SDS011;11076;47.942;11.804;2023-05-19T15:48:47;9.18;;;7.32;;
21827;SDS011;11076;47.942;11.804;2023-05-19T15:53:49;11.75;;;7.93;;
21827;SDS011;11076;47.942;11.804;2023-05-19T15:58:52;10.10;;;7.05;;
21827;SDS011;11076;47.942;11.804;2023-05-19T16:03:54;11.38;;;8.07;;
21827;SDS011;11076;47.942;11.804;2023-05-19T16:08:57;10.80;;;7.65;;
21827;SDS011;11076;47.942;11.804;2023-05-19T16:13:59;10.48;;;8.30;;
21827;SDS011;11076;47.942;11.804;2023-05-19T16:19:02;11.27;;;7.45;;
21827;SDS011;11076;47.942;11.804;2023-05-19T16:24:04;10.63;;;8.07;;
21827;SDS011;11076;47.942;11.804;2023-05-19T16:29:07;14.65;;;8.02;;
21827;SDS011;11076;47.942;11.804;2023-05-19T16:34:09;14.13;;;8.73;;
21827;SDS011;11076;47.942;11.804;2023-05-19T16:39:12;9.48;;;7.78;;
21827;SDS011;11076;47.942;11.804;2023-05-19T16:44:14;13.05;;;8.43;;
21827;SDS011;11076;47.942;11.804;2023-05-19T16:49:19;14.10;;;7.55;;
21827;SDS011;11076;47.942;11.804;2023-05-19T16:54:24;10.52;;;7.95;;
21827;SDS011;11076;47.942;11.804;2023-05-19T16:59:27;13.63;;;8.23;;
21827;SDS011;11076;47.942;11.804;2023-05-19T17:04:29;21.67;;;7.95;;
21827;SDS011;11076;47.942;11.804;2023-05-19T17:09:32;16.25;;;8.13;;
21827;SDS011;11076;47.942;11.804;2023-05-19T17:14:35;13.48;;;8.02;;
21827;SDS011;11076;47.942;11.804;2023-05-19T17:19:37;14.27;;;8.65;;
21827;SDS011;11076;47.942;11.804;2023-05-19T17:24:39;13.88;;;8.60;;
21827;SDS011;11076;47.942;11.804;2023-05-19T17:29:42;10.88;;;8.15;;
21827;SDS011;11076;47.942;11.804;2023-05-19T17:34:45;10.93;;;8.90;;
21827;SDS011;11076;47.942;11.804;2023-05-19T17:39:47;11.93;;;8.75;;
21827;SDS011;11076;47.942;11.804;2023-05-19T17:44:50;16.95;;;9.48;;
21827;SDS011;11076;47.942;11.804;2023-05-19T17:49:53;14.55;;;9.35;;
21827;SDS011;11076;47.942;11.804;2023-05-19T17:54:55;12.77;;;8.95;;
21827;SDS011;11076;47.942;11.804;2023-05-19T17:59:58;14.80;;;9.40;;
21827;SDS011;11076;47.942;11.804;2023-05-19T18:05:01;12.82;;;9.45;;
21827;SDS011;11076;47.942;11.804;2023-05-19T18:10:05;13.85;;;9.40;;
21827;SDS011;11076;47.942;11.804;2023-05-19T18:15:08;13.85;;;9.68;;
21827;SDS011;11076;47.942;11.804;2023-05-19T18:20:11;13.50;;;9.40;;
21827;SDS011;11076;47.942;11.804;2023-05-19T18:25:14;12.15;;;9.10;;
21827;SDS011;11076;47.942;11.804;2023-05-19T18:30:17;10.27;;;7.85;;
21827;SDS011;11076;47.942;11.804;2023-05-19T18:35:20;11.55;;;8.27;;
21827;SDS011;11076;47.942;11.804;2023-05-19T18:40:22;12.27;;;8.07;;
21827;SDS011;11076;47.942;11.804;2023-05-19T18:45:25;14.00;;;8.80;;
21827;SDS011;11076;47.942;11.804;2023-05-19T18:50:27;12.90;;;8.80;;
21827;SDS011;11076;47.942;11.804;2023-05-19T18:55:30;18.08;;;9.25;;
21827;SDS011;11076;47.942;11.804;2023-05-19T19:00:35;11.18;;;7.63;;
21827;SDS011;11076;47.942;11.804;2023-05-19T19:05:38;11.07;;;8.05;;
21827;SDS011;11076;47.942;11.804;2023-05-19T19:10:41;9.85;;;8.13;;
21827;SDS011;11076;47.942;11.804;2023-05-19T19:15:45;11.40;;;7.78;;
21827;SDS011;11076;47.942;11.804;2023-05-19T19:20:48;13.38;;;8.05;;
21827;SDS011;11076;47.942;11.804;2023-05-19T19:25:50;13.57;;;8.57;;
21827;SDS011;11076;47.942;11.804;2023-05-19T19:30:52;11.93;;;8.65;;
21827;SDS011;11076;47.942;11.804;2023-05-19T19:35:55;11.45;;;7.97;;
21827;SDS011;11076;47.942;11.804;2023-05-19T19:40:58;12.57;;;8.68;;
21827;SDS011;11076;47.942;11.804;2023-05-19T19:46:01;12.75;;;9.30;;
21827;SDS011;11076;47.942;11.804;2023-05-19T19:51:05;10.68;;;8.52;;
21827;SDS011;11076;47.942;11.804;2023-05-19T19:56:07;12.90;;;9.38;;
21827;SDS011;11076;47.942;11.804;2023-05-19T20:01:10;12.32;;;9.15;;
21827;SDS011;11076;47.942;11.804;2023-05-19T20:06:12;12.25;;;8.77;;
21827;SDS011;11076;47.942;11.804;2023-05-19T20:11:15;14.15;;;8.80;;
21827;SDS011;11076;47.942;11.804;2023-05-19T20:16:18;15.02;;;9.38;;
21827;SDS011;11076;47.942;11.804;2023-05-19T20:21:20;11.25;;;8.93;;
21827;SDS011;11076;47.942;11.804;2023-05-19T20:26:23;10.32;;;7.90;;
21827;SDS011;11076;47.942;11.804;2023-05-19T20:31:25;14.57;;;8.23;;
21827;SDS011;11076;47.942;11.804;2023-05-19T20:36:27;13.10;;;8.82;;
21827;SDS011;11076;47.942;11.804;2023-05-19T20:41:30;14.68;;;8.80;;
21827;SDS011;11076;47.942;11.804;2023-05-19T20:46:32;17.75;;;9.70;;
21827;SDS011;11076;47.942;11.804;2023-05-19T20:51:35;21.00;;;8.93;;
21827;SDS011;11076;47.942;11.804;2023-05-19T20:56:37;15.15;;;9.70;;
21827;SDS011;11076;47.942;11.804;2023-05-19T21:01:40;12.00;;;9.60;;
21827;SDS011;11076;47.942;11.804;2023-05-19T21:06:42;10.27;;;8.40;;
21827;SDS011;11076;47.942;11.804;2023-05-19T21:11:45;16.90;;;9.02;;
21827;SDS011;11076;47.942;11.804;2023-05-19T21:16:49;14.85;;;8.90;;
21827;SDS011;11076;47.942;11.804;2023-05-19T21:21:52;14.05;;;8.25;;
21827;SDS011;11076;47.942;11.804;2023-05-19T21:26:54;11.60;;;8.35;;
21827;SDS011;11076;47.942;11.804;2023-05-19T21:31:57;10.00;;;8.88;;
21827;SDS011;11076;47.942;11.804;2023-05-19T21:37:00;13.85;;;9.23;;
21827;SDS011;11076;47.942;11.804;2023-05-19T21:42:04;13.05;;;8.77;;
21827;SDS011;11076;47.942;11.804;2023-05-19T21:47:07;11.15;;;8.15;;
21827;SDS011;11076;47.942;11.804;2023-05-19T21:52:09;15.32;;;9.68;;
21827;SDS011;11076;47.942;11.804;2023-05-19T21:57:12;11.98;;;8.77;;
21827;SDS011;11076;47.942;11.804;2023-05-19T22:02:14;11.80;;;8.95;;
21827;SDS011;11076;47.942;11.804;2023-05-19T22:07:17;14.27;;;9.98;;
21827;SDS011;11076;47.942;11.804;2023-05-19T22:12:19;11.82;;;9.27;;
21827;SDS011;11076;47.942;11.804;2023-05-19T22:17:22;12.68;;;9.10;;
21827;SDS011;11076;47.942;11.804;2023-05-19T22:22:24;12.90;;;9.48;;
21827;SDS011;11076;47.942;11.804;2023-05-19T22:27:27;11.18;;;8.85;;
21827;SDS011;11076;47.942;11.804;2023-05-19T22:32:29;12.77;;;9.77;;
21827;SDS011;11076;47.942;11.804;2023-05-19T22:37:32;17.45;;;10.60;;
21827;SDS011;11076;47.942;11.804;2023-05-19T22:42:34;12.85;;;9.07;;
21827;SDS011;11076;47.942;11.804;2023-05-19T22:47:36;14.00;;;10.68;;
21827;SDS011;11076;47.942;11.804;2023-05-19T22:52:39;14.73;;;10.35;;
21827;SDS011;11076;47.942;11.804;2023-05-19T22:57:41;10.98;;;8.27;;
21827;SDS011;11076;47.942;11.804;2023-05-19T23:02:44;13.82;;;9.68;;
21827;SDS011;11076;47.942;11.804;2023-05-19T23:07:46;15.25;;;9.50;;
21827;SDS011;11076;47.942;11.804;2023-05-19T23:12:48;16.92;;;10.82;;
21827;SDS011;11076;47.942;11.804;2023-05-19T23:17:52;13.57;;;9.68;;
21827;SDS011;11076;47.942;11.804;2023-05-19T23:22:54;13.73;;;9.00;;
21827;SDS011;11076;47.942;11.804;2023-05-19T23:27:57;14.15;;;9.38;;
21827;SDS011;11076;47.942;11.804;2023-05-19T23:32:59;21.77;;;11.32;;
21827;SDS011;11076;47.942;11.804;2023-05-19T23:38:02;13.88;;;10.60;;
21827;SDS011;11076;47.942;11.804;2023-05-19T23:43:04;13.73;;;10.65;;
21827;SDS011;11076;47.942;11.804;2023-05-19T23:48:07;14.40;;;10.27;;
21827;SDS011;11076;47.942;11.804;2023-05-19T23:53:09;15.43;;;10.23;;
21827;SDS011;11076;47.942;11.804;2023-05-19T23:58:12;13.43;;;9.45;;
